Time;durP1;ratioP1;P1;durP2;ratioP2;P2;SDS_P1;SDS_P2;PMS_P1;PMS_P2;Temp;Humidity;BMP_temperature;BMP_pressure;BME280_temperature;BME280_humidity;BME280_pressure;Samples;Min_cycle;Max_cycle;Signal;HPM_P1;HPM_P2
2021/09/28 00:00:12;;;;;;;8.73;7.40;;;14.70;99.90;;;;;;5036182;28;20177;-82
2021/09/28 00:02:38;;;;;;;12.87;7.80;;;14.70;99.90;;;;;;5035461;28;20285;-81
2021/09/28 00:05:04;;;;;;;10.57;7.10;;;14.70;99.90;;;;;;5035890;28;20541;-82
2021/09/28 00:07:30;;;;;;;10.80;7.40;;;14.70;99.90;;;;;;5035286;28;20230;-81
2021/09/28 00:09:55;;;;;;;9.27;7.03;;;14.70;99.90;;;;;;5036065;28;20185;-82
2021/09/28 00:12:21;;;;;;;8.30;6.97;;;14.70;99.90;;;;;;5037604;28;20179;-82
2021/09/28 00:14:47;;;;;;;8.80;7.37;;;14.80;99.90;;;;;;5037942;28;20181;-82
2021/09/28 00:17:12;;;;;;;12.27;7.20;;;14.70;99.90;;;;;;5043814;28;20198;-81
2021/09/28 00:19:40;;;;;;;9.20;6.73;;;14.70;99.90;;;;;;5051309;28;20175;-82
2021/09/28 00:22:05;;;;;;;11.30;7.17;;;14.70;99.90;;;;;;5042206;28;20185;-82
2021/09/28 00:24:33;;;;;;;9.47;7.00;;;14.70;99.90;;;;;;5039131;28;20178;-82
2021/09/28 00:26:59;;;;;;;11.20;7.27;;;14.60;99.90;;;;;;5039207;28;20210;-82
2021/09/28 00:29:25;;;;;;;10.40;7.53;;;14.60;99.90;;;;;;5039734;28;20205;-82
2021/09/28 00:31:50;;;;;;;11.97;7.13;;;14.60;99.90;;;;;;5038867;28;20636;-82
2021/09/28 00:34:16;;;;;;;7.57;6.30;;;14.60;99.90;;;;;;5038753;28;20269;-82
2021/09/28 00:36:41;;;;;;;9.50;6.53;;;14.60;99.90;;;;;;5038379;28;20216;-83
2021/09/28 00:39:07;;;;;;;11.17;6.87;;;14.50;99.90;;;;;;5039210;28;20182;-82
2021/09/28 00:41:33;;;;;;;9.67;7.00;;;14.50;99.90;;;;;;5039172;28;20209;-82
2021/09/28 00:43:59;;;;;;;8.57;7.30;;;14.60;99.90;;;;;;5040403;28;20182;-82
2021/09/28 00:46:25;;;;;;;7.20;5.97;;;14.50;99.90;;;;;;5041312;28;20175;-82
2021/09/28 00:48:52;;;;;;;8.53;5.90;;;14.50;99.90;;;;;;5043751;28;20243;-82
2021/09/28 00:51:18;;;;;;;7.37;5.97;;;14.50;99.90;;;;;;5038592;28;20178;-82
2021/09/28 00:53:45;;;;;;;8.23;6.10;;;14.50;99.90;;;;;;5040168;28;20166;-82
2021/09/28 00:56:16;;;;;;;8.00;6.23;;;14.50;99.90;;;;;;5039998;28;20185;-82
2021/09/28 00:58:42;;;;;;;8.67;6.50;;;14.50;99.90;;;;;;5039523;28;20702;-82
2021/09/28 01:01:09;;;;;;;8.43;6.27;;;14.50;99.90;;;;;;5039625;28;20178;-82
2021/09/28 01:03:38;;;;;;;9.67;5.90;;;14.50;99.90;;;;;;5039378;28;20636;-84
2021/09/28 01:06:05;;;;;;;7.17;6.10;;;14.50;99.90;;;;;;5038445;28;20277;-83
2021/09/28 01:08:30;;;;;;;8.43;5.37;;;14.40;99.90;;;;;;5038426;28;20734;-82
2021/09/28 01:10:56;;;;;;;8.07;6.40;;;14.40;99.90;;;;;;5039590;28;20175;-82
2021/09/28 01:13:24;;;;;;;6.87;5.23;;;14.40;99.90;;;;;;5037549;28;20178;-82
2021/09/28 01:15:59;;;;;;;6.60;4.90;;;14.40;99.90;;;;;;5037126;28;20209;-82
2021/09/28 01:18:29;;;;;;;7.63;5.90;;;14.40;99.90;;;;;;5038805;28;20697;-82
2021/09/28 01:20:56;;;;;;;6.50;5.33;;;14.40;99.90;;;;;;5037466;28;20182;-82
2021/09/28 01:23:21;;;;;;;6.87;5.70;;;14.40;99.90;;;;;;5039272;28;20178;-83
2021/09/28 01:25:47;;;;;;;6.97;5.60;;;14.40;99.90;;;;;;5038777;28;20182;-82
2021/09/28 01:28:13;;;;;;;10.53;5.90;;;14.40;99.90;;;;;;5037473;28;20308;-82
2021/09/28 01:30:39;;;;;;;12.37;6.13;;;14.30;99.90;;;;;;5037512;28;20264;-82
2021/09/28 01:33:05;;;;;;;7.60;5.57;;;14.30;99.90;;;;;;5038210;28;20188;-82
2021/09/28 01:35:30;;;;;;;9.47;6.27;;;14.30;99.90;;;;;;5037428;28;20632;-82
2021/09/28 01:37:57;;;;;;;7.10;5.60;;;14.20;99.90;;;;;;5038153;28;20273;-82
2021/09/28 01:40:23;;;;;;;7.67;5.53;;;14.20;99.90;;;;;;5038088;28;20612;-82
2021/09/28 01:42:49;;;;;;;9.83;5.47;;;;;;;;;;5038558;28;20190;-82
2021/09/28 01:45:15;;;;;;;6.37;5.33;;;14.10;99.90;;;;;;5038603;28;20193;-82
2021/09/28 01:47:41;;;;;;;9.77;6.33;;;14.10;99.90;;;;;;5037436;28;20208;-82
2021/09/28 01:50:07;;;;;;;7.47;5.50;;;14.10;99.90;;;;;;5038185;28;20182;-82
2021/09/28 01:52:37;;;;;;;8.30;5.20;;;14.10;99.90;;;;;;5037838;28;20189;-82
2021/09/28 01:55:05;;;;;;;8.83;5.27;;;14.10;99.90;;;;;;5037584;28;20217;-82
2021/09/28 01:57:31;;;;;;;6.30;4.70;;;14.10;99.90;;;;;;5038132;28;20199;-83
2021/09/28 01:59:56;;;;;;;5.83;5.00;;;14.00;99.90;;;;;;5039444;28;20182;-82
2021/09/28 02:02:22;;;;;;;6.37;5.53;;;14.00;99.90;;;;;;5037755;28;20201;-82
2021/09/28 02:04:47;;;;;;;7.10;6.03;;;13.90;99.90;;;;;;5039075;28;20510;-82
2021/09/28 02:07:13;;;;;;;6.90;5.83;;;13.90;99.90;;;;;;5039226;28;20198;-82
2021/09/28 02:09:39;;;;;;;8.07;5.63;;;13.80;99.90;;;;;;5044397;28;20202;-82
2021/09/28 02:12:05;;;;;;;9.13;5.23;;;13.80;99.90;;;;;;5051848;28;20212;-81
2021/09/28 02:14:31;;;;;;;6.77;5.33;;;13.80;99.90;;;;;;5052024;28;20174;-81
2021/09/28 02:16:57;;;;;;;10.87;5.83;;;13.70;99.90;;;;;;5039332;28;20186;-82
2021/09/28 02:19:23;;;;;;;7.40;5.47;;;13.70;99.90;;;;;;5036013;28;20197;-82
2021/09/28 02:21:50;;;;;;;11.03;7.07;;;13.60;99.90;;;;;;5036658;28;20174;-82
2021/09/28 02:24:16;;;;;;;6.50;5.47;;;13.60;99.90;;;;;;5034285;28;20254;-82
2021/09/28 02:26:42;;;;;;;9.33;5.57;;;13.60;99.90;;;;;;5035652;28;20182;-82
2021/09/28 02:29:08;;;;;;;8.63;5.50;;;13.60;99.90;;;;;;5037792;28;20197;-82
2021/09/28 02:31:34;;;;;;;8.47;5.87;;;13.50;99.90;;;;;;5037100;28;20236;-82
2021/09/28 02:34:00;;;;;;;10.70;5.80;;;13.50;99.90;;;;;;5038455;28;20182;-82
2021/09/28 02:36:25;;;;;;;7.90;6.10;;;13.40;99.90;;;;;;5040368;28;20198;-82
2021/09/28 02:38:51;;;;;;;14.47;5.97;;;13.40;99.90;;;;;;5041436;28;20198;-82
2021/09/28 02:41:17;;;;;;;6.57;5.50;;;13.30;99.90;;;;;;5042276;28;20177;-82
2021/09/28 02:43:42;;;;;;;11.77;6.17;;;13.30;99.90;;;;;;5037091;28;20188;-83
2021/09/28 02:46:08;;;;;;;7.37;5.97;;;13.20;99.90;;;;;;5036217;28;20648;-82
2021/09/28 02:48:34;;;;;;;8.77;5.60;;;13.30;99.90;;;;;;5036196;28;20671;-82
2021/09/28 02:51:00;;;;;;;8.97;6.10;;;13.30;99.90;;;;;;5037987;28;20206;-82
2021/09/28 02:53:25;;;;;;;6.87;5.77;;;13.30;99.90;;;;;;5037147;28;20175;-82
2021/09/28 02:55:51;;;;;;;7.57;5.50;;;13.30;99.90;;;;;;5035826;28;20175;-82
2021/09/28 02:58:17;;;;;;;9.10;6.07;;;13.30;99.90;;;;;;5037579;28;20763;-82
2021/09/28 03:00:42;;;;;;;7.60;5.87;;;13.30;99.90;;;;;;5035926;28;20613;-82
2021/09/28 03:03:09;;;;;;;10.53;5.80;;;13.40;99.90;;;;;;5037109;28;20540;-82
2021/09/28 03:05:35;;;;;;;8.07;5.70;;;13.40;99.90;;;;;;5037055;28;20178;-82
2021/09/28 03:08:01;;;;;;;12.77;6.80;;;13.50;99.90;;;;;;5037614;28;20206;-83
2021/09/28 03:10:27;;;;;;;8.57;6.07;;;13.50;99.90;;;;;;5036102;28;20174;-82
2021/09/28 03:12:53;;;;;;;7.93;5.97;;;13.60;99.90;;;;;;5036108;28;20633;-82
2021/09/28 03:15:19;;;;;;;7.83;6.03;;;13.60;99.90;;;;;;5038313;28;20249;-83
2021/09/28 03:17:44;;;;;;;8.50;6.37;;;13.60;99.90;;;;;;5036717;28;20555;-83
2021/09/28 03:20:11;;;;;;;11.17;7.97;;;13.60;99.90;;;;;;5038575;28;20178;-82
2021/09/28 03:22:37;;;;;;;11.77;9.07;;;13.60;99.90;;;;;;5040867;28;20174;-83
2021/09/28 03:25:03;;;;;;;13.47;9.53;;;13.70;99.90;;;;;;5038524;28;20178;-83
2021/09/28 03:27:29;;;;;;;16.10;11.10;;;13.80;99.90;;;;;;5038438;28;20221;-83
2021/09/28 03:29:54;;;;;;;16.33;11.13;;;13.80;99.90;;;;;;5037917;28;20202;-83
2021/09/28 03:32:20;;;;;;;17.67;12.13;;;13.90;99.90;;;;;;5036700;28;20223;-83
2021/09/28 03:34:45;;;;;;;18.37;12.03;;;13.90;99.90;;;;;;5037050;28;20177;-83
2021/09/28 03:37:11;;;;;;;14.53;11.43;;;13.90;99.90;;;;;;5037974;28;20190;-83
2021/09/28 03:39:37;;;;;;;17.30;12.43;;;14.00;99.90;;;;;;5038580;28;20175;-83
2021/09/28 03:42:03;;;;;;;17.87;12.37;;;14.00;99.90;;;;;;5037315;28;20192;-83
2021/09/28 03:44:29;;;;;;;15.67;11.57;;;14.00;99.90;;;;;;5038241;28;20655;-83
2021/09/28 03:46:54;;;;;;;18.10;11.63;;;14.00;99.90;;;;;;5036449;28;20228;-83
2021/09/28 03:49:20;;;;;;;15.37;11.83;;;14.00;99.90;;;;;;5038479;28;20202;-83
2021/09/28 03:51:46;;;;;;;14.90;11.20;;;14.00;99.90;;;;;;5036755;28;20281;-83
2021/09/28 03:54:11;;;;;;;15.33;11.53;;;14.00;99.90;;;;;;5036795;28;20178;-83
2021/09/28 03:56:37;;;;;;;18.87;12.63;;;14.00;99.90;;;;;;5038620;28;20197;-83
2021/09/28 03:59:03;;;;;;;15.80;11.60;;;14.00;99.90;;;;;;5039020;28;20183;-83
2021/09/28 04:01:28;;;;;;;19.93;12.53;;;14.00;99.90;;;;;;5042535;28;20225;-83
2021/09/28 04:03:54;;;;;;;18.60;12.87;;;14.00;99.90;;;;;;5042371;28;20244;-84
2021/09/28 04:06:20;;;;;;;19.07;12.07;;;14.00;99.90;;;;;;5043522;28;20663;-83
2021/09/28 04:08:45;;;;;;;19.13;12.70;;;14.00;99.90;;;;;;5041080;28;20216;-83
2021/09/28 04:11:11;;;;;;;17.03;12.70;;;14.00;99.90;;;;;;5046679;28;20170;-83
2021/09/28 04:13:40;;;;;;;17.43;12.60;;;14.00;99.90;;;;;;5053517;28;20175;-82
2021/09/28 04:16:07;;;;;;;16.10;12.10;;;14.00;99.90;;;;;;5053515;28;20170;-83
2021/09/28 04:18:33;;;;;;;18.17;12.87;;;14.00;99.90;;;;;;5048367;28;20217;-83
2021/09/28 04:20:59;;;;;;;18.10;12.33;;;14.00;99.90;;;;;;5040436;28;20182;-83
2021/09/28 04:23:24;;;;;;;18.33;12.47;;;14.00;99.90;;;;;;5040392;28;20693;-83
2021/09/28 04:25:50;;;;;;;17.63;12.93;;;13.90;99.90;;;;;;5040165;28;20187;-83
2021/09/28 04:28:16;;;;;;;19.20;12.33;;;13.90;99.90;;;;;;5040624;28;20694;-83
2021/09/28 04:30:42;;;;;;;15.93;12.33;;;13.90;99.90;;;;;;5042520;28;20186;-83
2021/09/28 04:33:07;;;;;;;16.27;12.03;;;13.90;99.90;;;;;;5043029;28;20630;-83
2021/09/28 04:35:33;;;;;;;11.80;9.80;;;13.90;99.90;;;;;;5043414;28;20584;-83
2021/09/28 04:37:59;;;;;;;12.90;9.17;;;13.80;99.90;;;;;;5043844;28;20608;-83
2021/09/28 04:40:25;;;;;;;16.40;9.60;;;13.80;99.90;;;;;;5040917;28;20185;-83
2021/09/28 04:42:51;;;;;;;13.07;9.77;;;13.80;99.90;;;;;;5040992;28;20185;-83
2021/09/28 04:45:17;;;;;;;11.70;9.00;;;13.70;99.90;;;;;;5038120;28;20186;-83
2021/09/28 04:47:43;;;;;;;10.33;7.57;;;13.70;99.90;;;;;;5039403;28;20263;-83
2021/09/28 04:50:09;;;;;;;9.73;7.60;;;13.70;99.90;;;;;;5039269;28;20174;-83
2021/09/28 04:52:38;;;;;;;9.93;6.40;;;13.60;99.90;;;;;;5037687;28;20533;-83
2021/09/28 04:55:05;;;;;;;6.60;5.23;;;13.60;99.90;;;;;;5036202;28;20587;-83
2021/09/28 04:57:31;;;;;;;7.63;5.53;;;13.50;99.90;;;;;;5035983;28;20197;-85
2021/09/28 04:59:58;;;;;;;11.63;6.43;;;13.50;99.90;;;;;;5040552;28;20228;-84
2021/09/28 05:02:24;;;;;;;8.13;6.67;;;13.50;99.90;;;;;;5042340;28;20181;-84
2021/09/28 05:04:49;;;;;;;9.87;7.20;;;13.40;99.90;;;;;;5040910;28;20178;-84
2021/09/28 05:07:15;;;;;;;9.27;7.00;;;13.40;99.90;;;;;;5039796;28;20211;-84
2021/09/28 05:09:41;;;;;;;8.33;6.60;;;13.40;99.90;;;;;;5039767;28;20589;-84
2021/09/28 05:12:07;;;;;;;7.73;6.07;;;13.30;99.90;;;;;;5039945;28;20185;-84
2021/09/28 05:14:33;;;;;;;7.00;5.53;;;13.40;99.90;;;;;;5041366;28;20178;-84
2021/09/28 05:16:59;;;;;;;8.40;6.20;;;13.30;99.90;;;;;;5039760;28;20202;-84
2021/09/28 05:19:25;;;;;;;6.77;5.57;;;13.40;99.90;;;;;;5040118;28;20185;-84
2021/09/28 05:21:51;;;;;;;7.17;5.70;;;13.40;99.90;;;;;;5039589;28;20553;-84
2021/09/28 05:24:16;;;;;;;8.90;5.90;;;13.40;99.90;;;;;;5040451;28;20190;-83
2021/09/28 05:26:42;;;;;;;4.60;4.10;;;13.30;99.90;;;;;;5040148;28;20184;-84
2021/09/28 05:29:08;;;;;;;4.53;3.80;;;13.30;99.90;;;;;;5038046;28;20690;-84
2021/09/28 05:31:33;;;;;;;4.93;3.80;;;13.30;99.90;;;;;;5039999;28;20178;-84
2021/09/28 05:33:59;;;;;;;2.97;2.67;;;13.20;99.90;;;;;;5037651;28;20193;-84
2021/09/28 05:36:25;;;;;;;2.67;2.30;;;13.20;99.90;;;;;;5038833;28;20513;-83
2021/09/28 05:38:51;;;;;;;2.60;2.30;;;13.10;99.90;;;;;;5035670;28;20280;-84
2021/09/28 05:41:16;;;;;;;2.30;1.93;;;13.00;99.90;;;;;;5038156;28;20182;-86
2021/09/28 05:43:43;;;;;;;2.17;1.80;;;12.90;99.90;;;;;;5039813;28;20177;-85
2021/09/28 05:46:09;;;;;;;1.87;1.63;;;12.90;99.90;;;;;;5039841;28;20265;-86
2021/09/28 05:48:35;;;;;;;2.37;1.50;;;12.80;99.90;;;;;;5039406;28;20276;-85
2021/09/28 05:51:01;;;;;;;3.40;1.40;;;12.70;99.90;;;;;;5039569;28;20232;-87
2021/09/28 05:53:34;;;;;;;1.40;1.23;;;12.70;99.90;;;;;;5041142;28;20636;-86
2021/09/28 05:56:00;;;;;;;7.30;1.20;;;12.60;99.90;;;;;;5039930;28;20185;-86
2021/09/28 05:58:25;;;;;;;2.93;1.40;;;12.60;99.90;;;;;;5042086;28;20197;-86
2021/09/28 06:00:51;;;;;;;1.20;1.00;;;12.60;99.90;;;;;;5040978;28;20205;-86
2021/09/28 06:03:16;;;;;;;1.37;1.27;;;12.60;99.90;;;;;;5042037;28;20185;-85
2021/09/28 06:05:42;;;;;;;1.63;1.23;;;;;;;;;;5039136;28;20189;-84
2021/09/28 06:08:08;;;;;;;1.97;1.43;;;12.50;99.90;;;;;;5039632;28;20202;-84
2021/09/28 06:10:34;;;;;;;1.47;1.30;;;12.50;99.90;;;;;;5048739;28;20234;-83
2021/09/28 06:13:01;;;;;;;2.10;1.90;;;12.50;99.90;;;;;;5052291;28;20170;-83
2021/09/28 06:15:27;;;;;;;2.00;1.37;;;12.50;99.90;;;;;;5045715;28;20620;-84
2021/09/28 06:17:52;;;;;;;2.10;1.73;;;12.50;99.90;;;;;;5039242;28;20205;-84
2021/09/28 06:20:18;;;;;;;12.53;2.30;;;12.60;99.90;;;;;;5039812;28;20280;-84
2021/09/28 06:22:44;;;;;;;1.97;1.50;;;12.60;99.90;;;;;;5041905;28;20178;-84
2021/09/28 06:25:10;;;;;;;1.60;1.50;;;12.40;99.90;;;;;;5040362;28;20182;-84
2021/09/28 06:27:36;;;;;;;1.57;1.47;;;12.30;99.90;;;;;;5042001;28;20221;-84
2021/09/28 06:30:02;;;;;;;1.73;1.63;;;12.20;99.90;;;;;;5040919;28;20233;-84
2021/09/28 06:32:28;;;;;;;2.03;1.30;;;12.20;99.90;;;;;;5037762;28;20260;-84
2021/09/28 06:34:53;;;;;;;1.60;1.00;;;12.10;99.90;;;;;;5037509;28;20182;-84
2021/09/28 06:37:19;;;;;;;1.40;1.20;;;12.20;99.90;;;;;;5037681;28;20668;-84
2021/09/28 06:39:45;;;;;;;1.43;1.20;;;12.20;99.90;;;;;;5037741;28;20284;-83
2021/09/28 06:42:10;;;;;;;1.23;1.10;;;12.20;99.90;;;;;;5038760;28;20228;-84
2021/09/28 06:44:36;;;;;;;1.10;0.90;;;12.20;99.90;;;;;;5037076;28;20193;-84
2021/09/28 06:47:02;;;;;;;1.13;1.03;;;12.20;99.90;;;;;;5037831;28;20206;-84
2021/09/28 06:49:27;;;;;;;2.77;1.03;;;12.20;99.90;;;;;;5036785;28;20215;-84
2021/09/28 06:51:53;;;;;;;1.33;0.93;;;12.10;99.90;;;;;;5037557;28;20193;-84
2021/09/28 06:54:19;;;;;;;1.30;1.20;;;12.20;99.90;;;;;;5036985;28;20184;-84
2021/09/28 06:56:44;;;;;;;2.50;1.40;;;12.20;99.90;;;;;;5035802;28;20191;-84
2021/09/28 06:59:10;;;;;;;1.77;1.67;;;12.20;99.90;;;;;;5037404;28;20174;-84
2021/09/28 07:01:40;;;;;;;1.60;1.50;;;12.30;99.90;;;;;;5037336;28;20180;-85
2021/09/28 07:04:06;;;;;;;1.50;1.37;;;12.20;99.90;;;;;;5035361;28;20232;-85
2021/09/28 07:06:32;;;;;;;2.97;1.70;;;12.20;99.90;;;;;;5034943;28;20182;-85
2021/09/28 07:08:58;;;;;;;1.50;1.40;;;12.20;99.90;;;;;;5036094;28;20259;-85
2021/09/28 07:11:24;;;;;;;2.27;2.07;;;12.20;99.90;;;;;;5034533;28;20213;-85
2021/09/28 07:13:50;;;;;;;1.80;1.70;;;12.30;99.90;;;;;;5034568;28;20174;-85
2021/09/28 07:16:17;;;;;;;2.47;2.00;;;12.20;99.90;;;;;;5033777;28;20181;-85
2021/09/28 07:18:42;;;;;;;2.47;1.63;;;12.20;99.90;;;;;;5034315;28;20257;-85
2021/09/28 07:21:09;;;;;;;5.23;1.80;;;12.30;99.90;;;;;;5035120;28;20549;-85
2021/09/28 07:23:36;;;;;;;2.07;1.87;;;12.20;99.90;;;;;;5039095;28;20182;-85
2021/09/28 07:26:03;;;;;;;1.93;1.63;;;12.20;99.90;;;;;;5038785;28;20308;-85
2021/09/28 07:28:29;;;;;;;2.57;1.97;;;12.10;99.90;;;;;;5038951;28;20671;-85
2021/09/28 07:30:55;;;;;;;2.90;2.00;;;11.90;99.90;;;;;;5040770;28;20175;-85
2021/09/28 07:33:20;;;;;;;3.57;2.30;;;11.90;99.90;;;;;;5044262;28;20182;-85
2021/09/28 07:35:46;;;;;;;5.63;2.30;;;11.80;99.90;;;;;;5042373;28;20174;-85
2021/09/28 07:38:13;;;;;;;3.97;2.40;;;11.90;99.90;;;;;;5041373;28;20686;-85
2021/09/28 07:40:40;;;;;;;2.90;1.90;;;11.80;99.90;;;;;;5041657;28;20184;-85
2021/09/28 07:43:06;;;;;;;3.47;2.53;;;11.80;99.90;;;;;;5041739;28;20175;-85
2021/09/28 07:45:32;;;;;;;2.30;2.10;;;11.70;99.90;;;;;;5041859;28;20533;-85
2021/09/28 07:47:58;;;;;;;4.57;2.60;;;11.60;99.90;;;;;;5042896;28;20204;-85
2021/09/28 07:50:24;;;;;;;4.23;2.60;;;11.60;99.90;;;;;;5049172;28;20185;-84
2021/09/28 07:52:49;;;;;;;4.03;2.93;;;11.70;99.90;;;;;;5055150;28;20243;-84
2021/09/28 07:55:15;;;;;;;4.97;2.40;;;11.70;99.90;;;;;;5052559;28;20221;-85
2021/09/28 07:57:41;;;;;;;3.60;2.37;;;11.70;99.90;;;;;;5041773;28;20198;-85
2021/09/28 08:00:09;;;;;;;4.00;2.73;;;11.70;99.90;;;;;;5041404;28;20191;-85
2021/09/28 08:02:37;;;;;;;5.57;2.43;;;11.70;99.90;;;;;;5025830;28;20192;-85
2021/09/28 08:05:03;;;;;;;3.97;2.50;;;11.70;99.90;;;;;;5041845;28;20656;-85
2021/09/28 08:07:28;;;;;;;4.27;2.50;;;11.80;99.90;;;;;;5041767;28;20210;-85
2021/09/28 08:09:54;;;;;;;9.30;3.90;;;11.90;99.90;;;;;;5045103;28;20218;-85
2021/09/28 08:12:20;;;;;;;6.07;3.47;;;11.90;99.90;;;;;;5048614;28;20185;-85
2021/09/28 08:14:46;;;;;;;3.73;2.63;;;12.10;99.90;;;;;;5050012;28;20209;-85
2021/09/28 08:17:12;;;;;;;3.43;2.30;;;12.20;99.90;;;;;;5046498;28;20214;-85
2021/09/28 08:19:43;;;;;;;3.37;2.40;;;12.50;99.90;;;;;;5044642;28;20226;-85
2021/09/28 08:22:12;;;;;;;2.83;2.00;;;12.70;99.90;;;;;;5045271;28;20154;-84
2021/09/28 08:24:42;;;;;;;2.77;2.00;;;12.90;99.90;;;;;;5044557;28;20178;-84
2021/09/28 08:29:59;;;;;;;2.90;1.87;;;13.30;99.90;;;;;;5041189;28;20271;-85
2021/09/28 08:32:26;;;;;;;3.77;2.00;;;13.50;99.90;;;;;;5039902;28;20178;-86
2021/09/28 08:34:51;;;;;;;5.93;1.80;;;13.70;99.90;;;;;;5039758;28;20176;-85
2021/09/28 08:37:17;;;;;;;5.23;2.10;;;13.70;99.90;;;;;;5039408;28;20675;-84
2021/09/28 08:39:44;;;;;;;2.87;2.07;;;13.60;99.90;;;;;;5039518;28;20224;-85
2021/09/28 08:42:10;;;;;;;3.30;2.13;;;13.60;99.90;;;;;;5039354;28;20189;-85
2021/09/28 08:44:36;;;;;;;4.37;1.87;;;13.60;99.90;;;;;;5038933;28;20228;-85
2021/09/28 08:47:02;;;;;;;2.00;1.70;;;13.60;99.90;;;;;;5039439;28;20607;-85
2021/09/28 08:49:28;;;;;;;2.77;2.10;;;13.70;99.90;;;;;;5039469;28;20751;-85
2021/09/28 08:51:53;;;;;;;3.10;2.20;;;13.80;99.90;;;;;;5040891;28;20289;-84
2021/09/28 08:54:19;;;;;;;3.03;2.20;;;13.80;99.90;;;;;;5037451;28;20181;-84
2021/09/28 08:56:47;;;;;;;4.40;2.30;;;13.80;99.90;;;;;;5039517;28;20197;-85
2021/09/28 08:59:14;;;;;;;5.30;2.40;;;13.80;99.90;;;;;;5039768;28;20178;-85
2021/09/28 09:02:06;;;;;;;2.97;2.10;;;13.90;99.90;;;;;;5039744;28;20186;-85
2021/09/28 09:04:32;;;;;;;2.10;1.90;;;14.10;99.90;;;;;;5038877;28;20652;-85
2021/09/28 09:06:58;;;;;;;1.80;1.70;;;14.20;99.90;;;;;;5040295;28;20191;-85
2021/09/28 09:09:23;;;;;;;2.50;2.17;;;14.40;99.90;;;;;;5038826;28;20209;-85
2021/09/28 09:11:51;;;;;;;4.13;2.03;;;14.50;99.90;;;;;;5040801;28;20245;-85
2021/09/28 09:14:25;;;;;;;3.23;2.03;;;14.60;99.90;;;;;;5039179;28;20178;-85
2021/09/28 09:16:55;;;;;;;3.73;1.90;;;14.60;99.90;;;;;;5038973;28;20252;-84
2021/09/28 09:19:24;;;;;;;2.23;2.03;;;14.40;99.90;;;;;;5039442;28;20182;-85
2021/09/28 09:21:51;;;;;;;3.33;2.20;;;14.30;99.90;;;;;;5039875;28;20246;-84
2021/09/28 09:24:44;;;;;;;3.03;2.23;;;14.20;99.90;;;;;;5043134;28;20714;-84
2021/09/28 09:27:16;;;;;;;2.80;2.13;;;14.10;99.90;;;;;;5038813;28;20220;-84
2021/09/28 09:29:42;;;;;;;5.33;3.60;;;14.10;99.90;;;;;;5039271;28;20202;-84
2021/09/28 09:32:08;;;;;;;6.40;3.80;;;14.10;99.90;;;;;;5037668;28;20537;-84
2021/09/28 09:34:34;;;;;;;4.67;2.37;;;14.20;99.90;;;;;;5039020;28;20167;-84
2021/09/28 09:37:06;;;;;;;4.87;2.33;;;14.40;99.90;;;;;;5037423;28;20194;-84
2021/09/28 09:39:47;;;;;;;2.93;2.27;;;14.60;99.90;;;;;;5037246;28;20179;-84
2021/09/28 09:42:13;;;;;;;3.63;2.50;;;14.80;99.90;;;;;;5038297;28;20271;-84
2021/09/28 09:44:41;;;;;;;3.17;2.33;;;14.80;99.90;;;;;;5035537;28;20170;-84
2021/09/28 09:47:23;;;;;;;3.10;2.33;;;14.90;99.90;;;;;;5036306;28;20195;-84
2021/09/28 09:49:49;;;;;;;4.67;2.40;;;14.80;99.90;;;;;;5038046;28;20206;-84
2021/09/28 09:52:15;;;;;;;2.87;2.53;;;14.90;99.90;;;;;;5039051;28;20694;-84
2021/09/28 09:54:43;;;;;;;3.40;2.40;;;14.90;99.90;;;;;;5040242;28;20170;-84
2021/09/28 09:57:14;;;;;;;2.63;2.40;;;14.80;99.90;;;;;;5038791;28;20189;-84
2021/09/28 09:59:40;;;;;;;2.50;2.30;;;14.80;99.90;;;;;;5039633;28;20151;-84
2021/09/28 10:02:07;;;;;;;2.67;2.20;;;14.80;99.90;;;;;;5042443;28;20174;-83
2021/09/28 10:04:33;;;;;;;2.97;2.00;;;14.90;99.90;;;;;;5038157;28;20187;-84
2021/09/28 10:07:02;;;;;;;3.13;2.30;;;15.20;99.90;;;;;;5049651;28;20225;-83
2021/09/28 10:09:34;;;;;;;3.83;2.37;;;15.30;99.90;;;;;;5041347;28;20679;-83
2021/09/28 10:12:05;;;;;;;4.53;2.50;;;15.20;99.90;;;;;;5052661;28;20178;-82
2021/09/28 10:14:36;;;;;;;2.93;2.40;;;15.10;99.90;;;;;;5051943;28;20174;-83
2021/09/28 10:17:22;;;;;;;3.73;2.47;;;15.20;99.90;;;;;;5126244;27;20609;-83
2021/09/28 10:20:02;;;;;;;4.13;2.80;;;15.20;99.90;;;;;;5113917;28;20197;-83
2021/09/28 10:22:52;;;;;;;4.80;3.10;;;15.30;99.90;;;;;;5105347;28;20172;-83
2021/09/28 10:28:04;;;;;;;8.90;6.57;;;15.20;99.90;;;;;;5105118;28;20204;-83
2021/09/28 10:30:33;;;;;;;4.70;2.90;;;15.10;99.90;;;;;;5093212;28;20177;-83
2021/09/28 10:32:59;;;;;;;3.10;2.27;;;15.00;99.90;;;;;;5099002;28;20649;-83
2021/09/28 10:35:25;;;;;;;3.30;2.83;;;14.90;99.90;;;;;;5108156;28;20199;-83
2021/09/28 10:37:57;;;;;;;4.67;2.83;;;14.90;99.90;;;;;;5106214;28;20221;-83
2021/09/28 10:40:24;;;;;;;2.80;2.57;;;14.90;99.90;;;;;;5112155;28;20191;-83
2021/09/28 10:42:59;;;;;;;3.33;2.50;;;14.90;99.90;;;;;;5113530;28;20183;-83
2021/09/28 10:45:27;;;;;;;3.07;2.73;;;15.00;99.90;;;;;;5113292;28;20198;-83
2021/09/28 10:47:55;;;;;;;3.07;2.50;;;15.20;99.90;;;;;;5113747;28;20206;-83
2021/09/28 10:50:29;;;;;;;3.60;2.67;;;15.30;99.90;;;;;;5115130;28;20176;-83
2021/09/28 10:52:57;;;;;;;3.80;2.70;;;15.20;99.90;;;;;;5115637;28;20632;-83
2021/09/28 10:55:26;;;;;;;2.83;2.60;;;15.10;99.90;;;;;;5113464;28;20208;-83
2021/09/28 10:57:58;;;;;;;2.60;2.40;;;15.00;99.90;;;;;;5114703;28;20195;-84
2021/09/28 11:00:29;;;;;;;2.40;2.17;;;15.00;99.90;;;;;;5112825;28;20204;-83
2021/09/28 11:02:57;;;;;;;3.27;2.53;;;15.10;99.90;;;;;;5112704;28;20255;-83
2021/09/28 11:05:31;;;;;;;4.57;2.50;;;15.10;99.90;;;;;;5112726;28;20240;-83
2021/09/28 11:07:59;;;;;;;3.47;2.80;;;15.30;99.90;;;;;;5113786;28;20664;-83
2021/09/28 11:10:26;;;;;;;3.03;2.30;;;15.40;99.90;;;;;;5113062;28;20187;-83
2021/09/28 11:12:52;;;;;;;3.67;2.70;;;15.50;99.90;;;;;;5113332;28;20241;-83
2021/09/28 11:15:26;;;;;;;3.33;2.20;;;15.70;99.90;;;;;;5112420;28;20215;-83
2021/09/28 11:17:52;;;;;;;2.33;2.10;;;15.90;99.90;;;;;;5113203;28;20324;-83
2021/09/28 11:20:22;;;;;;;2.43;2.23;;;16.00;99.90;;;;;;5114552;28;20180;-83
2021/09/28 11:23:00;;;;;;;2.77;2.00;;;16.00;99.90;;;;;;5114478;28;20172;-83
2021/09/28 11:25:26;;;;;;;3.20;2.27;;;15.90;99.90;;;;;;5113558;28;20579;-83
2021/09/28 11:28:13;;;;;;;2.50;2.30;;;15.80;99.90;;;;;;5103518;28;20203;-83
2021/09/28 11:30:55;;;;;;;3.87;2.00;;;15.70;99.90;;;;;;5100031;28;20206;-83
2021/09/28 11:33:22;;;;;;;3.40;2.30;;;15.70;99.90;;;;;;5099760;28;20184;-82
2021/09/28 11:36:10;;;;;;;3.00;2.30;;;15.60;99.90;;;;;;5100841;28;20206;-83
2021/09/28 11:38:38;;;;;;;3.63;2.33;;;15.60;99.90;;;;;;5101217;28;20203;-83
2021/09/28 11:41:10;;;;;;;3.17;2.50;;;15.70;99.90;;;;;;5100378;28;20625;-83
2021/09/28 11:43:37;;;;;;;3.03;2.50;;;15.70;99.90;;;;;;5100281;28;20678;-83
2021/09/28 11:46:14;;;;;;;3.63;2.60;;;15.60;99.90;;;;;;5100599;28;20184;-83
2021/09/28 11:48:42;;;;;;;3.70;2.30;;;15.60;99.90;;;;;;5100031;28;20203;-83
2021/09/28 11:51:25;;;;;;;3.60;2.70;;;15.60;99.90;;;;;;5099786;28;20180;-83
2021/09/28 11:54:03;;;;;;;3.10;2.60;;;15.50;99.90;;;;;;5099016;28;20180;-83
2021/09/28 11:56:32;;;;;;;3.87;2.40;;;15.40;99.90;;;;;;5099455;28;20600;-83
2021/09/28 11:58:58;;;;;;;4.70;2.17;;;15.50;99.90;;;;;;5101122;28;20179;-82
2021/09/28 12:01:26;;;;;;;3.17;2.63;;;15.60;99.90;;;;;;5105830;28;20172;-82
2021/09/28 12:09:47;;;;;;;2.23;2.03;;;15.90;99.90;;;;;;5104656;28;20160;-82
2021/09/28 12:12:16;;;;;;;2.43;2.20;;;15.90;99.90;;;;;;5099866;28;20163;-82
2021/09/28 12:14:48;;;;;;;3.40;2.40;;;15.80;99.90;;;;;;5097889;28;20248;-82
2021/09/28 12:17:18;;;;;;;2.73;2.30;;;15.70;99.90;;;;;;5098526;28;20212;-82
2021/09/28 12:19:56;;;;;;;3.67;2.10;;;15.70;99.90;;;;;;5102497;28;20201;-82
2021/09/28 12:22:33;;;;;;;2.77;2.07;;;15.70;99.90;;;;;;5098129;28;20176;-83
2021/09/28 12:25:01;;;;;;;3.57;1.70;;;15.70;99.90;;;;;;5097883;28;20238;-82
2021/09/28 12:27:30;;;;;;;2.37;2.00;;;15.70;99.90;;;;;;5097445;28;20219;-82
2021/09/28 12:29:57;;;;;;;1.93;1.73;;;15.80;99.90;;;;;;5098436;28;20180;-82
2021/09/28 12:32:26;;;;;;;2.67;2.10;;;15.80;99.90;;;;;;5098581;28;20267;-82
2021/09/28 12:34:57;;;;;;;3.07;2.37;;;15.90;99.90;;;;;;5099921;28;20173;-82
2021/09/28 12:37:24;;;;;;;3.07;2.40;;;16.00;99.90;;;;;;5099442;28;20196;-82
2021/09/28 12:39:58;;;;;;;3.13;2.80;;;15.90;99.90;;;;;;5097417;28;20172;-82
2021/09/28 12:42:25;;;;;;;4.20;2.23;;;16.00;99.90;;;;;;5098299;28;20605;-82
2021/09/28 12:44:59;;;;;;;6.67;3.13;;;16.10;99.90;;;;;;5098233;28;20176;-82
2021/09/28 12:47:29;;;;;;;2.97;2.50;;;16.20;99.90;;;;;;5099403;28;20198;-82
2021/09/28 12:49:55;;;;;;;3.90;2.73;;;16.30;99.90;;;;;;5097951;28;20181;-82
2021/09/28 12:52:21;;;;;;;4.53;2.60;;;16.20;99.90;;;;;;5099742;28;20546;-82
2021/09/28 12:54:47;;;;;;;2.97;2.60;;;15.80;99.90;;;;;;5099521;28;20176;-82
2021/09/28 12:57:14;;;;;;;3.83;2.87;;;15.60;99.90;;;;;;5098568;28;20192;-82